createdAt,value
2019-01-20T00:00:09.768Z,12.77
2019-01-20T00:02:38.354Z,14.60
2019-01-20T00:05:11.955Z,16.63
2019-01-20T00:07:40.392Z,12.17
2019-01-20T00:10:11.330Z,10.00
2019-01-20T00:12:39.768Z,13.00
2019-01-20T00:15:11.314Z,17.87
2019-01-20T00:17:39.775Z,17.00
2019-01-20T00:20:09.176Z,15.63
2019-01-20T00:22:37.750Z,9.80
2019-01-20T00:25:08.348Z,19.37
2019-01-20T00:27:36.926Z,11.97
2019-01-20T00:30:17.050Z,16.53
2019-01-20T00:32:45.505Z,11.00
2019-01-20T00:35:15.794Z,14.57
2019-01-20T00:37:44.498Z,16.07
2019-01-20T00:40:15.352Z,11.30
2019-01-20T00:42:44.642Z,14.47
2019-01-20T00:45:15.617Z,15.90
2019-01-20T00:47:44.204Z,15.30
2019-01-20T00:50:14.799Z,15.77
2019-01-20T00:52:43.308Z,16.30
2019-01-20T00:55:17.231Z,13.17
2019-01-20T00:57:45.798Z,15.67
2019-01-20T01:00:25.662Z,17.90
2019-01-20T01:02:54.110Z,19.27
2019-01-20T01:05:22.908Z,14.77
2019-01-20T01:07:52.073Z,13.77
2019-01-20T01:10:20.784Z,14.37
2019-01-20T01:12:49.855Z,14.23
2019-01-20T01:15:18.383Z,13.30
2019-01-20T01:17:46.841Z,20.83
2019-01-20T01:20:19.869Z,13.80
2019-01-20T01:22:48.622Z,20.70
2019-01-20T01:25:17.681Z,15.23
2019-01-20T01:27:46.471Z,11.07
2019-01-20T01:30:18.033Z,16.57
2019-01-20T01:32:46.608Z,21.63
2019-01-20T01:35:15.234Z,17.53
2019-01-20T01:37:43.674Z,12.13
2019-01-20T01:40:14.659Z,14.63
2019-01-20T01:42:43.441Z,17.37
2019-01-20T01:45:16.809Z,15.03
2019-01-20T01:47:45.422Z,17.97
2019-01-20T01:50:15.218Z,19.50
2019-01-20T01:52:43.666Z,18.10
2019-01-20T01:55:12.646Z,16.27
2019-01-20T01:57:41.110Z,13.47
2019-01-20T02:00:15.371Z,13.17
2019-01-20T02:02:44.040Z,23.87
2019-01-20T02:05:12.552Z,19.37
2019-01-20T02:07:41.145Z,17.93
2019-01-20T02:10:12.231Z,15.87
2019-01-20T02:12:40.767Z,16.33
2019-01-20T02:15:11.424Z,13.37
2019-01-20T02:17:39.897Z,18.57
2019-01-20T02:20:11.584Z,18.90
2019-01-20T02:22:40.168Z,17.70
2019-01-20T02:25:08.754Z,23.80
2019-01-20T02:27:37.289Z,18.17
2019-01-20T02:30:14.707Z,17.07
2019-01-20T02:32:43.199Z,19.10
2019-01-20T02:35:11.642Z,17.23
2019-01-20T02:37:40.111Z,20.40
2019-01-20T02:40:11.568Z,16.63
2019-01-20T02:42:40.031Z,18.10
2019-01-20T02:45:11.004Z,18.83
2019-01-20T02:47:39.464Z,19.40
2019-01-20T02:50:10.922Z,13.43
2019-01-20T02:52:39.379Z,21.67
2019-01-20T02:55:07.972Z,17.37
2019-01-20T02:57:36.416Z,14.20
2019-01-20T03:00:16.646Z,15.97
2019-01-20T03:02:45.188Z,16.93
2019-01-20T03:05:14.167Z,18.37
2019-01-20T03:07:42.623Z,19.03
2019-01-20T03:10:12.812Z,19.57
2019-01-20T03:12:41.278Z,16.17
2019-01-20T03:15:12.464Z,18.00
2019-01-20T03:17:41.069Z,14.43
2019-01-20T03:20:15.208Z,16.83
2019-01-20T03:22:43.675Z,18.93
2019-01-20T03:25:14.689Z,14.67
2019-01-20T03:27:44.269Z,17.20
2019-01-20T03:30:15.178Z,16.23
2019-01-20T03:32:43.649Z,23.87
2019-01-20T03:35:12.939Z,20.47
2019-01-20T03:37:41.399Z,21.33
2019-01-20T03:40:15.641Z,18.70
2019-01-20T03:42:44.168Z,20.87
2019-01-20T03:45:14.957Z,19.37
2019-01-20T03:47:43.415Z,13.57
2019-01-20T03:50:13.807Z,18.93
2019-01-20T03:52:42.476Z,20.47
2019-01-20T03:55:13.152Z,18.80
2019-01-20T03:57:41.659Z,16.70
2019-01-20T04:00:13.205Z,16.43
2019-01-20T04:02:41.741Z,17.43
2019-01-20T04:05:11.030Z,18.33
2019-01-20T04:07:39.565Z,16.27
2019-01-20T04:10:11.078Z,15.57
2019-01-20T04:12:39.521Z,17.53
2019-01-20T04:15:09.110Z,15.83
2019-01-20T04:17:37.550Z,14.47
2019-01-20T04:20:08.059Z,17.03
2019-01-20T04:22:36.503Z,15.73
2019-01-20T04:25:13.977Z,17.80
2019-01-20T04:27:42.422Z,19.17
2019-01-20T04:30:13.225Z,18.30
2019-01-20T04:32:41.664Z,17.23
2019-01-20T04:35:11.158Z,16.97
2019-01-20T04:37:39.885Z,15.97
2019-01-20T04:40:11.149Z,14.87
2019-01-20T04:42:39.747Z,17.40
2019-01-20T04:45:11.102Z,18.70
2019-01-20T04:47:39.562Z,17.60
2019-01-20T04:50:13.853Z,18.43
2019-01-20T04:52:42.449Z,17.07
2019-01-20T04:55:12.811Z,20.50
2019-01-20T04:57:41.887Z,16.37
2019-01-20T05:00:13.757Z,14.90
2019-01-20T05:02:42.190Z,17.80
2019-01-20T05:05:10.718Z,12.97
2019-01-20T05:07:39.244Z,19.30
2019-01-20T05:10:10.745Z,20.93
2019-01-20T05:12:39.200Z,21.50
2019-01-20T05:15:10.501Z,16.00
2019-01-20T05:17:38.931Z,15.27
2019-01-20T05:20:09.198Z,17.63
2019-01-20T05:22:37.739Z,17.13
2019-01-20T05:25:08.740Z,15.00
2019-01-20T05:27:37.194Z,18.27
2019-01-20T05:30:08.731Z,15.23
2019-01-20T05:32:37.257Z,14.00
2019-01-20T05:35:07.959Z,15.03
2019-01-20T05:37:36.405Z,18.13
2019-01-20T05:40:07.995Z,19.30
2019-01-20T05:42:36.442Z,20.97
2019-01-20T05:45:07.983Z,22.63
2019-01-20T05:47:36.435Z,24.37
2019-01-20T05:50:08.237Z,13.93
2019-01-20T05:52:36.691Z,19.90
2019-01-20T05:55:08.065Z,17.27
2019-01-20T05:57:36.601Z,18.10
2019-01-20T06:00:17.035Z,14.37
2019-01-20T06:02:45.541Z,15.10
2019-01-20T06:05:14.147Z,18.80
2019-01-20T06:07:42.664Z,18.27
2019-01-20T06:10:12.743Z,14.67
2019-01-20T06:12:41.901Z,19.50
2019-01-20T06:15:18.194Z,18.83
2019-01-20T06:17:46.746Z,15.77
2019-01-20T06:20:16.230Z,19.50
2019-01-20T06:22:45.079Z,15.17
2019-01-20T06:25:13.690Z,17.73
2019-01-20T06:27:42.432Z,20.93
2019-01-20T06:30:16.742Z,18.33
2019-01-20T06:32:45.186Z,17.20
2019-01-20T06:35:13.650Z,18.47
2019-01-20T06:37:42.106Z,24.63
2019-01-20T06:40:10.895Z,21.87
2019-01-20T06:42:39.350Z,20.17
2019-01-20T06:45:10.293Z,28.10
2019-01-20T06:47:38.762Z,18.40
2019-01-20T06:50:15.734Z,21.87
2019-01-20T06:52:44.197Z,21.73
2019-01-20T06:55:13.654Z,16.90
2019-01-20T06:57:42.382Z,19.50
2019-01-20T07:00:16.459Z,18.83
2019-01-20T07:02:44.929Z,24.30
2019-01-20T07:05:13.614Z,20.07
2019-01-20T07:07:42.316Z,21.77
2019-01-20T07:10:15.783Z,25.20
2019-01-20T07:12:44.389Z,22.00
2019-01-20T07:15:20.528Z,17.10
2019-01-20T07:17:49.153Z,19.40
2019-01-20T07:20:17.620Z,20.03
2019-01-20T07:22:46.203Z,22.43
2019-01-20T07:25:14.817Z,17.03
2019-01-20T07:27:43.410Z,24.63
2019-01-20T07:30:17.102Z,18.20
2019-01-20T07:32:45.555Z,23.27
2019-01-20T07:35:14.443Z,22.70
2019-01-20T07:37:43.032Z,23.20
2019-01-20T07:40:17.486Z,24.43
2019-01-20T07:42:45.953Z,18.83
2019-01-20T07:45:16.033Z,21.57
2019-01-20T07:47:44.505Z,21.83
2019-01-20T07:50:15.489Z,21.67
2019-01-20T07:52:43.947Z,24.70
2019-01-20T07:55:12.536Z,23.23
2019-01-20T07:57:41.163Z,20.03
2019-01-20T08:00:13.053Z,26.03
2019-01-20T08:02:41.741Z,25.63
2019-01-20T08:05:10.634Z,21.67
2019-01-20T08:07:39.123Z,24.20
2019-01-20T08:10:11.021Z,25.97
2019-01-20T08:12:39.489Z,21.77
2019-01-20T08:15:10.857Z,23.57
2019-01-20T08:17:39.317Z,29.23
2019-01-20T08:20:15.673Z,24.50
2019-01-20T08:22:44.191Z,64.57
2019-01-20T08:25:14.380Z,20.70
2019-01-20T08:27:42.895Z,22.57
2019-01-20T08:30:14.380Z,25.20
2019-01-20T08:32:42.843Z,22.10
2019-01-20T08:35:12.736Z,25.57
2019-01-20T08:37:41.419Z,23.73
2019-01-20T08:40:12.798Z,26.33
2019-01-20T08:42:41.241Z,23.33
2019-01-20T08:45:27.703Z,21.20
2019-01-20T08:47:58.979Z,26.47
2019-01-20T08:50:27.453Z,23.10
2019-01-20T08:52:55.879Z,23.23
2019-01-20T08:55:24.352Z,24.43
2019-01-20T08:57:52.888Z,25.13
2019-01-20T09:00:21.361Z,21.33
2019-01-20T09:02:49.812Z,27.73
2019-01-20T09:05:18.280Z,24.37
2019-01-20T09:07:46.726Z,25.07
2019-01-20T09:10:18.407Z,26.77
2019-01-20T09:12:47.124Z,26.57
2019-01-20T09:15:15.562Z,26.40
2019-01-20T09:17:44.018Z,26.93
2019-01-20T09:20:14.516Z,29.70
2019-01-20T09:22:43.044Z,25.77
2019-01-20T09:25:13.708Z,28.40
2019-01-20T09:27:42.311Z,29.83
2019-01-20T09:30:19.531Z,29.40
2019-01-20T09:32:48.060Z,26.50
2019-01-20T09:35:16.833Z,22.67
2019-01-20T09:37:45.286Z,27.07
2019-01-20T09:40:18.323Z,26.60
2019-01-20T09:42:46.860Z,21.90
2019-01-20T09:45:27.690Z,28.50
2019-01-20T09:47:56.355Z,24.83
2019-01-20T09:50:24.906Z,23.47
2019-01-20T09:52:53.900Z,24.67
2019-01-20T09:55:22.502Z,30.33
2019-01-20T09:57:51.029Z,24.33
2019-01-20T10:00:33.791Z,27.03
2019-01-20T10:03:02.302Z,24.30
2019-01-20T10:05:30.971Z,26.97
2019-01-20T10:07:59.431Z,24.10
2019-01-20T10:10:28.264Z,20.90
2019-01-20T10:12:56.819Z,21.93
2019-01-20T10:15:25.274Z,21.53
2019-01-20T10:17:53.707Z,20.27
2019-01-20T10:20:27.451Z,21.43
2019-01-20T10:22:56.064Z,21.00
2019-01-20T10:25:24.523Z,21.50
2019-01-20T10:27:53.005Z,17.50
2019-01-20T10:30:29.689Z,16.10
2019-01-20T10:32:58.153Z,46.20
2019-01-20T10:35:28.317Z,20.67
2019-01-20T10:37:58.473Z,20.07
2019-01-20T10:40:26.930Z,25.00
2019-01-20T10:42:55.374Z,19.83
2019-01-20T10:45:24.009Z,24.47
2019-01-20T10:47:52.482Z,19.23
2019-01-20T10:50:21.167Z,19.83
2019-01-20T10:52:49.758Z,23.23
2019-01-20T10:55:18.225Z,18.53
2019-01-20T10:57:46.776Z,17.67
2019-01-20T11:00:18.290Z,14.13
2019-01-20T11:02:46.749Z,14.40
2019-01-20T11:05:15.633Z,13.97
2019-01-20T11:07:44.171Z,15.90
2019-01-20T11:10:12.825Z,17.40
2019-01-20T11:12:41.455Z,20.77
2019-01-20T11:15:14.745Z,17.93
2019-01-20T11:17:43.346Z,20.90
2019-01-20T11:20:14.600Z,20.07
2019-01-20T11:22:43.148Z,18.30
2019-01-20T11:25:14.703Z,16.50
2019-01-20T11:27:43.231Z,13.93
2019-01-20T11:30:13.462Z,15.37
2019-01-20T11:32:42.485Z,15.70
2019-01-20T11:35:14.154Z,18.97
2019-01-20T11:37:42.667Z,15.20
2019-01-20T11:40:12.647Z,15.90
2019-01-20T11:42:41.113Z,21.90
2019-01-20T11:45:12.633Z,14.57
2019-01-20T11:47:41.979Z,15.53
2019-01-20T11:50:12.667Z,13.30
2019-01-20T11:52:41.202Z,15.57
2019-01-20T11:55:12.687Z,14.27
2019-01-20T11:57:41.222Z,13.93
2019-01-20T12:00:15.608Z,14.87
2019-01-20T12:02:44.209Z,12.97
2019-01-20T12:05:14.324Z,14.87
2019-01-20T12:07:42.864Z,18.43
2019-01-20T12:10:12.045Z,16.10
2019-01-20T12:12:41.219Z,17.00
2019-01-20T12:15:12.321Z,13.40
2019-01-20T12:17:41.148Z,14.80
2019-01-20T12:20:12.342Z,16.03
2019-01-20T12:22:40.853Z,13.47
2019-01-20T12:25:12.651Z,16.17
2019-01-20T12:27:41.171Z,15.70
2019-01-20T12:30:12.688Z,14.30
2019-01-20T12:32:41.246Z,16.70
2019-01-20T12:35:09.790Z,16.83
2019-01-20T12:37:38.369Z,18.37
2019-01-20T12:40:12.494Z,16.07
2019-01-20T12:42:40.947Z,16.67
2019-01-20T12:45:09.510Z,19.33
2019-01-20T12:47:37.954Z,13.90
2019-01-20T12:50:12.695Z,13.67
2019-01-20T12:52:41.242Z,17.33
2019-01-20T12:55:10.618Z,17.17
2019-01-20T12:57:39.124Z,16.27
2019-01-20T13:00:13.305Z,59.30
2019-01-20T13:02:41.828Z,17.10
2019-01-20T13:05:10.359Z,16.13
2019-01-20T13:07:39.695Z,15.97
2019-01-20T13:10:16.719Z,19.10
2019-01-20T13:12:45.230Z,19.10
2019-01-20T13:15:16.694Z,14.43
2019-01-20T13:17:45.224Z,17.83
2019-01-20T13:20:22.663Z,14.03
2019-01-20T13:22:51.120Z,18.90
2019-01-20T13:25:21.843Z,16.63
2019-01-20T13:27:50.816Z,17.57
2019-01-20T13:30:22.032Z,16.87
2019-01-20T13:32:50.495Z,18.57
2019-01-20T13:35:19.991Z,15.77
2019-01-20T13:37:51.066Z,17.53
2019-01-20T13:40:31.423Z,16.23
2019-01-20T13:42:59.903Z,21.47
2019-01-20T13:45:28.433Z,17.03
2019-01-20T13:47:56.938Z,15.00
2019-01-20T13:50:25.403Z,18.77
2019-01-20T13:52:55.320Z,16.70
2019-01-20T13:55:24.334Z,17.17
2019-01-20T13:57:52.784Z,19.90
2019-01-20T14:00:25.372Z,14.97
2019-01-20T14:02:53.814Z,19.30
2019-01-20T14:05:22.344Z,17.60
2019-01-20T14:07:51.304Z,24.80
2019-01-20T14:10:22.067Z,19.60
2019-01-20T14:12:50.577Z,17.27
2019-01-20T14:15:19.108Z,15.50
2019-01-20T14:17:47.614Z,20.53
2019-01-20T14:20:24.320Z,19.10
2019-01-20T14:22:52.775Z,17.80
2019-01-20T14:25:28.253Z,22.43
2019-01-20T14:27:56.967Z,21.60
2019-01-20T14:30:33.153Z,23.70
2019-01-20T14:33:01.747Z,17.67
2019-01-20T14:35:30.327Z,17.27
2019-01-20T14:37:58.888Z,21.40
2019-01-20T14:40:27.434Z,20.37
2019-01-20T14:42:56.190Z,17.63
2019-01-20T14:45:24.691Z,17.37
2019-01-20T14:47:53.226Z,16.90
2019-01-20T14:50:24.134Z,15.57
2019-01-20T14:52:52.695Z,22.77
2019-01-20T14:55:21.587Z,21.13
2019-01-20T14:57:50.265Z,24.50
2019-01-20T15:00:30.019Z,18.33
2019-01-20T15:02:58.842Z,21.37
2019-01-20T15:05:27.296Z,20.73
2019-01-20T15:07:55.834Z,22.20
2019-01-20T15:10:24.292Z,20.77
2019-01-20T15:12:52.798Z,21.67
2019-01-20T15:15:27.057Z,19.50
2019-01-20T15:17:55.549Z,23.17
2019-01-20T15:20:24.002Z,21.30
2019-01-20T15:22:52.482Z,23.50
2019-01-20T15:25:21.208Z,26.60
2019-01-20T15:27:50.018Z,20.23
2019-01-20T15:30:32.400Z,21.60
2019-01-20T15:33:02.764Z,20.57
2019-01-20T15:35:31.277Z,21.30
2019-01-20T15:37:59.744Z,20.83
2019-01-20T15:40:28.349Z,21.37
2019-01-20T15:42:57.019Z,26.73
2019-01-20T15:45:25.979Z,71.67
2019-01-20T15:47:54.734Z,28.97
2019-01-20T15:50:25.906Z,30.47
2019-01-20T15:52:54.610Z,27.13
2019-01-20T15:55:23.210Z,25.93
2019-01-20T15:57:51.652Z,22.17
2019-01-20T16:00:23.161Z,28.00
2019-01-20T16:02:51.814Z,27.77
2019-01-20T16:05:20.385Z,23.03
2019-01-20T16:07:48.914Z,27.27
2019-01-20T16:10:17.901Z,26.13
2019-01-20T16:12:47.070Z,25.03
2019-01-20T16:15:24.694Z,25.80
2019-01-20T16:17:52.667Z,27.83
2019-01-20T16:20:21.248Z,20.67
2019-01-20T16:22:49.775Z,22.53
2019-01-20T16:25:20.893Z,29.53
2019-01-20T16:27:49.655Z,24.67
2019-01-20T16:30:20.997Z,27.53
2019-01-20T16:32:50.524Z,27.93
2019-01-20T16:35:20.502Z,25.57
2019-01-20T16:37:49.010Z,27.93
2019-01-20T16:40:20.075Z,27.83
2019-01-20T16:42:49.213Z,29.33
2019-01-20T16:45:20.162Z,28.33
2019-01-20T16:47:48.703Z,31.50
2019-01-20T16:50:19.702Z,35.50
2019-01-20T16:52:48.156Z,29.07
2019-01-20T16:55:16.834Z,33.07
2019-01-20T16:57:45.270Z,28.33
2019-01-20T17:00:22.130Z,27.00
2019-01-20T17:02:50.822Z,30.77
2019-01-20T17:05:19.442Z,26.97
2019-01-20T17:07:47.894Z,29.97
2019-01-20T17:10:22.084Z,27.10
2019-01-20T17:12:50.576Z,30.17
2019-01-20T17:15:21.483Z,27.90
2019-01-20T17:17:50.027Z,27.27
2019-01-20T17:20:18.741Z,30.00
2019-01-20T17:22:47.726Z,29.27
2019-01-20T17:25:17.423Z,27.67
2019-01-20T17:27:46.031Z,36.13
2019-01-20T17:30:20.540Z,27.10
2019-01-20T17:32:49.136Z,33.10
2019-01-20T17:35:17.837Z,32.13
2019-01-20T17:37:46.371Z,33.50
2019-01-20T17:40:20.067Z,37.20
2019-01-20T17:42:48.759Z,38.97
2019-01-20T17:45:26.019Z,37.37
2019-01-20T17:47:54.828Z,36.33
2019-01-20T17:50:26.318Z,38.73
2019-01-20T17:52:54.936Z,34.57
2019-01-20T17:55:23.419Z,43.70
2019-01-20T17:57:52.265Z,38.03
2019-01-20T18:00:23.762Z,38.97
2019-01-20T18:02:52.296Z,39.87
2019-01-20T18:05:23.245Z,41.40
2019-01-20T18:07:51.919Z,38.03
2019-01-20T18:10:20.475Z,38.97
2019-01-20T18:12:49.074Z,42.53
2019-01-20T18:15:20.069Z,35.00
2019-01-20T18:17:48.578Z,31.37
2019-01-20T18:20:22.638Z,37.33
2019-01-20T18:22:51.256Z,39.47
2019-01-20T18:25:20.643Z,37.03
2019-01-20T18:27:49.267Z,37.43
2019-01-20T18:30:29.372Z,32.80
2019-01-20T18:32:57.836Z,39.97
2019-01-20T18:35:28.043Z,39.27
2019-01-20T18:37:56.639Z,40.47
2019-01-20T18:40:26.447Z,38.27
2019-01-20T18:42:55.336Z,44.43
2019-01-20T18:45:26.466Z,40.87
2019-01-20T18:47:54.908Z,35.70
2019-01-20T18:50:26.177Z,40.20
2019-01-20T18:52:54.802Z,37.30
2019-01-20T18:55:23.850Z,41.07
2019-01-20T18:57:52.386Z,41.63
2019-01-20T19:00:29.490Z,40.67
2019-01-20T19:02:58.244Z,36.90
2019-01-20T19:05:26.982Z,43.87
2019-01-20T19:07:55.806Z,36.53
2019-01-20T19:10:24.474Z,34.47
2019-01-20T19:12:52.963Z,38.70
2019-01-20T19:15:22.830Z,41.57
2019-01-20T19:17:51.552Z,42.00
2019-01-20T19:20:22.562Z,40.70
2019-01-20T19:22:52.670Z,39.73
2019-01-20T19:25:21.212Z,44.77
2019-01-20T19:27:49.676Z,40.13
2019-01-20T19:30:20.449Z,41.37
2019-01-20T19:32:48.989Z,39.90
2019-01-20T19:35:17.822Z,34.87
2019-01-20T19:37:46.432Z,38.13
2019-01-20T19:40:15.553Z,33.73
2019-01-20T19:42:44.163Z,38.40
2019-01-20T19:45:17.852Z,32.83
2019-01-20T19:47:46.541Z,39.57
2019-01-20T19:50:16.425Z,34.33
2019-01-20T19:52:45.174Z,30.50
2019-01-20T19:55:16.718Z,30.13
2019-01-20T19:57:45.302Z,37.73
2019-01-20T20:00:19.794Z,37.33
2019-01-20T20:02:48.409Z,42.20
2019-01-20T20:05:18.796Z,38.97
2019-01-20T20:07:47.965Z,39.63
2019-01-20T20:10:19.139Z,36.57
2019-01-20T20:12:47.831Z,34.23
2019-01-20T20:15:21.138Z,30.73
2019-01-20T20:17:49.739Z,39.00
2019-01-20T20:20:19.678Z,32.17
2019-01-20T20:22:48.331Z,34.00
2019-01-20T20:25:18.630Z,37.67
2019-01-20T20:27:47.142Z,31.77
2019-01-20T20:30:27.194Z,34.90
2019-01-20T20:32:55.792Z,32.70
2019-01-20T20:35:24.428Z,34.63
2019-01-20T20:37:53.058Z,34.90
2019-01-20T20:40:21.692Z,38.47
2019-01-20T20:42:50.211Z,38.43
2019-01-20T20:45:21.495Z,37.87
2019-01-20T20:47:50.608Z,35.73
2019-01-20T20:50:19.431Z,36.50
2019-01-20T20:52:48.000Z,35.20
2019-01-20T20:55:16.629Z,42.87
2019-01-20T20:57:45.266Z,33.87
2019-01-20T21:00:22.739Z,35.93
2019-01-20T21:02:51.360Z,33.80
2019-01-20T21:05:19.926Z,38.37
2019-01-20T21:07:48.633Z,32.47
2019-01-20T21:10:17.763Z,34.10
2019-01-20T21:12:46.378Z,33.73
2019-01-20T21:15:16.644Z,31.00
2019-01-20T21:17:48.471Z,39.97
2019-01-20T21:20:21.993Z,37.87
2019-01-20T21:22:50.532Z,32.77
2019-01-20T21:25:19.091Z,39.40
2019-01-20T21:27:47.726Z,39.83
2019-01-20T21:30:18.797Z,34.43
2019-01-20T21:32:47.344Z,45.40
2019-01-20T21:35:16.132Z,40.40
2019-01-20T21:37:46.061Z,37.90
2019-01-20T21:40:17.060Z,35.80
2019-01-20T21:42:45.613Z,42.07
2019-01-20T21:45:16.065Z,36.07
2019-01-20T21:47:44.826Z,40.00
2019-01-20T21:50:16.301Z,37.57
2019-01-20T21:52:45.069Z,40.73
2019-01-20T21:55:13.587Z,39.90
2019-01-20T21:57:42.067Z,43.30
2019-01-20T22:00:13.812Z,34.47
2019-01-20T22:02:42.341Z,37.97
2019-01-20T22:05:11.441Z,43.83
2019-01-20T22:07:40.154Z,49.57
2019-01-20T22:10:12.041Z,39.13
2019-01-20T22:12:40.579Z,31.93
2019-01-20T22:15:10.363Z,41.57
2019-01-20T22:17:38.958Z,42.07
2019-01-20T22:20:10.623Z,36.83
2019-01-20T22:22:39.085Z,42.23
2019-01-20T22:25:09.180Z,42.03
2019-01-20T22:27:37.723Z,44.60
2019-01-20T22:30:09.244Z,38.40
2019-01-20T22:32:37.728Z,43.67
2019-01-20T22:35:09.276Z,37.63
2019-01-20T22:37:37.743Z,40.87
2019-01-20T22:40:08.798Z,42.77
2019-01-20T22:42:37.432Z,42.43
2019-01-20T22:45:08.809Z,38.17
2019-01-20T22:47:37.298Z,35.83
2019-01-20T22:50:09.072Z,41.93
2019-01-20T22:52:37.686Z,35.60
2019-01-20T22:55:09.169Z,38.60
2019-01-20T22:57:37.720Z,42.37
2019-01-20T23:00:24.060Z,39.03
2019-01-20T23:02:52.595Z,40.37
2019-01-20T23:05:21.102Z,40.07
2019-01-20T23:07:49.578Z,36.60
2019-01-20T23:10:18.262Z,37.73
2019-01-20T23:12:46.723Z,41.07
2019-01-20T23:15:15.402Z,42.43
2019-01-20T23:17:44.118Z,34.00
2019-01-20T23:20:16.090Z,39.80
2019-01-20T23:22:44.538Z,42.93
2019-01-20T23:25:13.207Z,37.87
2019-01-20T23:27:41.682Z,40.40
2019-01-20T23:30:13.661Z,43.23
2019-01-20T23:32:42.172Z,41.87
2019-01-20T23:35:11.094Z,41.90
2019-01-20T23:37:39.584Z,43.63
2019-01-20T23:40:15.949Z,39.50
2019-01-20T23:42:44.402Z,41.87
2019-01-20T23:45:13.403Z,37.90
2019-01-20T23:47:41.926Z,34.37
2019-01-20T23:50:15.045Z,43.97
2019-01-20T23:52:43.681Z,37.50
2019-01-20T23:55:12.684Z,37.00
2019-01-20T23:57:41.591Z,40.87
